Time;durP1;ratioP1;P1;durP2;ratioP2;P2;SDS_P1;SDS_P2;PMS_P1;PMS_P2;Temp;Humidity;BMP_temperature;BMP_pressure;BME280_temperature;BME280_humidity;BME280_pressure;Samples;Min_cycle;Max_cycle;Signal;HPM_P1;HPM_P2
2023/10/18 00:00:34;;;;;;;12.98;10.60;;;;;;;6.05;100.00;101233.59;5016327;28;20056;-77
2023/10/18 00:03:02;;;;;;;12.77;9.82;;;;;;;6.04;100.00;101224.00;5025518;28;20052;-77
2023/10/18 00:05:31;;;;;;;13.00;10.40;;;;;;;6.04;100.00;101229.22;5026591;28;20649;-77
2023/10/18 00:07:59;;;;;;;11.45;9.68;;;;;;;6.04;100.00;101228.38;5007394;28;20048;-76
2023/10/18 00:10:27;;;;;;;12.57;10.40;;;;;;;6.04;100.00;101220.53;5006619;28;20050;-76
2023/10/18 00:12:55;;;;;;;12.70;9.95;;;;;;;6.03;100.00;101224.00;4990115;28;20115;-78
2023/10/18 00:15:24;;;;;;;12.00;9.93;;;;;;;6.04;100.00;101218.75;5009000;28;20050;-77
2023/10/18 00:17:51;;;;;;;11.07;9.80;;;;;;;6.06;100.00;101217.00;5027187;28;20096;-78
2023/10/18 00:20:25;;;;;;;12.05;9.93;;;;;;;6.07;100.00;101217.88;5028784;28;20044;-77
2023/10/18 00:22:54;;;;;;;11.70;10.05;;;;;;;6.07;100.00;101223.09;5039914;28;20041;-77
2023/10/18 00:25:23;;;;;;;13.75;9.82;;;;;;;6.06;100.00;101201.31;5027386;28;20497;-78
2023/10/18 00:27:50;;;;;;;11.38;9.50;;;;;;;6.08;100.00;101205.66;5027202;28;20482;-77
2023/10/18 00:30:21;;;;;;;11.65;9.50;;;;;;;6.04;100.00;101203.06;5023460;28;20053;-77
2023/10/18 00:32:48;;;;;;;11.45;9.43;;;;;;;6.05;100.00;101201.31;5036008;28;20040;-78
2023/10/18 00:35:18;;;;;;;10.05;8.77;;;;;;;6.05;100.00;101211.78;5015322;28;20052;-78
2023/10/18 00:37:49;;;;;;;11.40;9.48;;;;;;;6.06;100.00;101214.41;5046260;28;20053;-79
2023/10/18 00:43:20;;;;;;;10.80;9.05;;;;;;;6.07;100.00;101212.63;5024861;28;20187;-77
2023/10/18 00:45:51;;;;;;;11.85;10.02;;;;;;;6.05;99.86;101210.03;5026199;28;20467;-78
2023/10/18 00:48:26;;;;;;;11.57;9.63;;;;;;;6.04;99.83;101205.69;5010298;28;20046;-78
2023/10/18 00:50:58;;;;;;;12.80;9.52;;;;;;;6.02;99.86;101209.19;5008283;28;20088;-79
2023/10/18 00:53:30;;;;;;;13.23;9.90;;;;;;;6.01;99.80;101212.69;5019100;28;20049;-78
2023/10/18 00:55:59;;;;;;;10.73;9.60;;;;;;;5.99;100.00;101210.09;5014286;28;20049;-78
2023/10/18 00:58:31;;;;;;;12.10;10.07;;;;;;;6.00;99.73;101213.56;5024357;28;20033;-76
2023/10/18 01:01:08;;;;;;;10.85;9.75;;;;;;;5.98;99.86;101204.81;5020667;28;20092;-77
2023/10/18 01:03:38;;;;;;;12.82;9.52;;;;;;;5.96;99.94;101198.69;5026012;28;20509;-76
2023/10/18 01:06:12;;;;;;;11.45;10.25;;;;;;;5.95;99.86;101186.53;5020991;28;20491;-77
2023/10/18 01:08:40;;;;;;;13.05;10.80;;;;;;;5.94;99.88;101193.47;5006517;28;20057;-79
2023/10/18 01:11:10;;;;;;;12.23;10.10;;;;;;;5.90;99.97;101192.63;5008261;28;20056;-76
2023/10/18 01:13:42;;;;;;;13.10;10.38;;;;;;;5.90;99.99;101183.94;5007830;28;20073;-76
2023/10/18 01:16:14;;;;;;;12.07;10.05;;;;;;;5.85;100.00;101178.69;5005895;28;20057;-76
2023/10/18 01:18:43;;;;;;;12.95;10.85;;;;;;;5.85;100.00;101173.47;5025879;28;20447;-76
2023/10/18 01:21:14;;;;;;;11.10;9.90;;;;;;;5.84;100.00;101183.94;5027459;28;20049;-76
2023/10/18 01:23:49;;;;;;;11.25;9.60;;;;;;;5.81;100.00;101179.59;5006696;28;20042;-75
2023/10/18 01:26:18;;;;;;;12.25;9.75;;;;;;;5.79;100.00;101180.50;5008575;28;20038;-75
2023/10/18 01:28:46;;;;;;;11.75;9.55;;;;;;;5.78;100.00;101178.75;5040191;28;20042;-75
2023/10/18 01:31:14;;;;;;;14.10;10.70;;;;;;;5.75;100.00;101169.16;5015006;28;20679;-74
2023/10/18 01:33:48;;;;;;;11.82;10.05;;;;;;;5.74;100.00;101168.28;5037269;28;20068;-75
2023/10/18 01:36:18;;;;;;;14.15;10.73;;;;;;;5.72;99.90;101172.66;5007069;28;20116;-75
2023/10/18 01:38:54;;;;;;;14.10;10.13;;;;;;;5.69;100.00;101167.47;5005632;28;20061;-75
2023/10/18 01:41:25;;;;;;;12.25;10.55;;;;;;;5.68;100.00;101163.09;5019702;28;20083;-77
2023/10/18 01:44:10;;;;;;;12.23;10.55;;;;;;;5.68;100.00;101155.25;5036173;28;20042;-78
2023/10/18 01:46:45;;;;;;;12.02;10.80;;;;;;;5.65;100.00;101154.38;5005396;28;20629;-79
2023/10/18 01:49:16;;;;;;;13.88;10.20;;;;;;;5.64;100.00;101147.44;5016329;28;20116;-77
2023/10/18 01:51:47;;;;;;;11.88;10.52;;;;;;;5.64;100.00;101144.81;5013270;28;20514;-77
2023/10/18 01:54:15;;;;;;;15.68;9.88;;;;;;;5.61;100.00;101143.06;5025386;28;20559;-77
2023/10/18 01:56:46;;;;;;;13.85;10.10;;;;;;;5.60;100.00;101139.59;5037029;28;20066;-77
2023/10/18 01:59:17;;;;;;;12.20;9.85;;;;;;;5.60;100.00;101126.50;5028903;28;20076;-76
2023/10/18 02:01:53;;;;;;;12.55;9.85;;;;;;;5.59;100.00;101127.38;5004678;28;20132;-76
2023/10/18 02:04:25;;;;;;;12.60;10.18;;;;;;;5.58;100.00;101117.81;5024510;28;20042;-75
2023/10/18 02:07:17;;;;;;;14.80;10.88;;;;;;;5.58;100.00;101128.25;5013403;28;20120;-75
2023/10/18 02:09:48;;;;;;;12.70;10.40;;;;;;;5.56;100.00;101124.78;5023588;28;20038;-76
2023/10/18 02:12:20;;;;;;;12.07;10.27;;;;;;;5.53;100.00;101119.59;5019789;28;20121;-76
2023/10/18 02:14:49;;;;;;;14.02;9.63;;;;;;;5.53;100.00;101122.19;5027568;28;20664;-77
2023/10/18 02:17:18;;;;;;;12.93;9.75;;;;;;;5.51;100.00;101118.72;5011897;28;20088;-77
2023/10/18 02:19:46;;;;;;;12.35;10.07;;;;;;;5.51;100.00;101126.56;5027226;28;20040;-77
2023/10/18 02:22:16;;;;;;;12.43;10.80;;;;;;;5.50;100.00;101119.59;5023105;28;20046;-77
2023/10/18 02:24:44;;;;;;;13.35;10.05;;;;;;;5.49;100.00;101120.47;5008530;28;20538;-75
2023/10/18 02:27:19;;;;;;;13.02;10.18;;;;;;;5.50;100.00;101116.09;5010881;28;20053;-79
2023/10/18 02:29:47;;;;;;;11.82;9.50;;;;;;;5.50;100.00;101106.50;4992654;28;20052;-77
2023/10/18 02:32:23;;;;;;;12.85;10.10;;;;;;;5.50;100.00;101103.00;5019569;28;20454;-78
2023/10/18 02:34:51;;;;;;;11.27;10.07;;;;;;;5.51;100.00;101107.38;5010872;28;20045;-78
2023/10/18 02:37:25;;;;;;;12.40;8.93;;;;;;;5.48;100.00;101091.72;5028821;28;20056;-77
2023/10/18 02:39:56;;;;;;;11.57;8.77;;;;;;;5.48;99.96;101094.34;5020137;28;20042;-79
2023/10/18 02:42:32;;;;;;;11.65;8.68;;;;;;;5.46;100.00;101089.09;5031202;28;20046;-78
2023/10/18 02:45:01;;;;;;;11.38;8.77;;;;;;;5.48;100.00;101084.72;5008383;28;20046;-77
2023/10/18 02:47:29;;;;;;;9.43;7.95;;;;;;;5.47;100.00;101082.13;5014354;28;20475;-77
2023/10/18 02:49:57;;;;;;;12.20;9.07;;;;;;;5.47;99.96;101071.66;5021090;28;20038;-77
2023/10/18 02:52:26;;;;;;;13.48;9.55;;;;;;;5.46;99.83;101077.78;5026354;28;20049;-78
2023/10/18 02:54:56;;;;;;;11.82;9.60;;;;;;;5.45;99.91;101071.66;5003794;28;20117;-78
2023/10/18 02:57:24;;;;;;;12.70;8.88;;;;;;;5.44;99.97;101068.19;5010164;28;20139;-77
2023/10/18 02:59:51;;;;;;;12.05;9.25;;;;;;;5.43;100.00;101068.22;5007645;28;20056;-78
2023/10/18 03:02:24;;;;;;;10.75;8.07;;;;;;;5.44;99.90;101062.97;5023049;28;20455;-78
2023/10/18 03:04:52;;;;;;;9.68;8.55;;;;;;;5.43;100.00;101061.22;5010757;28;20091;-78
2023/10/18 03:07:22;;;;;;;10.52;9.38;;;;;;;5.45;99.73;101055.97;5024802;28;20482;-77
2023/10/18 03:09:49;;;;;;;12.30;8.88;;;;;;;5.45;99.78;101055.97;5033615;28;20033;-77
2023/10/18 03:12:18;;;;;;;11.90;8.88;;;;;;;5.45;99.66;101050.72;5023155;28;20096;-76
2023/10/18 03:14:54;;;;;;;10.25;8.70;;;;;;;5.44;99.46;101043.78;5059559;28;20073;-77
2023/10/18 03:17:35;;;;;;;12.32;9.55;;;;;;;5.44;99.46;101043.78;5027561;28;20037;-76
2023/10/18 03:20:19;;;;;;;10.85;8.45;;;;;;;5.43;99.62;101042.06;5038294;28;20127;-77
2023/10/18 03:22:49;;;;;;;10.05;8.35;;;;;;;5.42;99.44;101042.94;5014041;28;20041;-76
2023/10/18 03:25:16;;;;;;;13.57;9.02;;;;;;;5.40;99.46;101040.31;5038498;28;20135;-77
2023/10/18 03:27:57;;;;;;;13.32;8.98;;;;;;;5.39;99.49;101043.78;5015469;28;20099;-76
2023/10/18 03:30:40;;;;;;;11.57;8.45;;;;;;;5.40;99.30;101044.69;5023116;28;20048;-75
2023/10/18 03:33:07;;;;;;;9.75;8.40;;;;;;;5.36;99.30;101033.38;5021150;28;20080;-75
2023/10/18 03:35:39;;;;;;;13.88;8.82;;;;;;;5.36;99.37;101036.00;5026589;28;20050;-76
2023/10/18 03:38:16;;;;;;;11.75;8.98;;;;;;;5.33;99.32;101040.38;5013155;28;20064;-76
2023/10/18 03:40:49;;;;;;;10.57;9.00;;;;;;;5.31;99.57;101031.66;5022683;28;20054;-75
2023/10/18 03:43:18;;;;;;;13.68;10.07;;;;;;;5.28;99.55;101027.31;5022633;28;20582;-75
2023/10/18 03:46:19;;;;;;;11.38;9.05;;;;;;;5.26;99.57;101022.09;5023614;28;20120;-75
2023/10/18 03:48:40;;;;;;;10.75;9.45;;;;;;;5.23;99.64;101013.41;5024261;28;20041;-75
2023/10/18 03:51:08;;;;;;;12.90;9.48;;;;;;;5.20;99.67;101009.06;5014809;28;20080;-74
2023/10/18 03:53:37;;;;;;;9.38;8.38;;;;;;;5.18;99.83;101009.94;5020735;28;20568;-76
2023/10/18 03:56:06;;;;;;;13.00;9.70;;;;;;;5.15;100.00;101008.19;5013542;28;20045;-77
2023/10/18 03:58:35;;;;;;;12.88;10.10;;;;;;;5.13;100.00;101009.97;5021904;28;20854;-74
2023/10/18 04:01:05;;;;;;;11.63;9.38;;;;;;;5.11;100.00;101007.34;5028064;28;20730;-76
2023/10/18 04:03:32;;;;;;;11.57;10.38;;;;;;;5.11;100.00;100999.50;5025216;28;20056;-75
2023/10/18 04:06:20;;;;;;;12.40;10.05;;;;;;;5.09;100.00;100998.66;5032766;28;20059;-77
2023/10/18 04:08:47;;;;;;;11.90;9.75;;;;;;;5.08;100.00;101007.38;5027697;28;20049;-77
2023/10/18 04:11:15;;;;;;;12.15;9.85;;;;;;;5.05;100.00;101004.78;5026829;28;20124;-78
2023/10/18 04:13:42;;;;;;;12.23;9.30;;;;;;;5.06;100.00;101003.03;5048620;28;20053;-77
2023/10/18 04:16:11;;;;;;;12.77;9.63;;;;;;;5.05;100.00;100990.81;5020307;28;20811;-78
2023/10/18 04:18:41;;;;;;;11.65;9.52;;;;;;;5.02;100.00;100981.28;5024715;28;20042;-78
2023/10/18 04:21:15;;;;;;;13.15;10.38;;;;;;;5.01;100.00;100986.50;5019883;28;20882;-78
2023/10/18 04:23:46;;;;;;;13.35;10.60;;;;;;;5.01;100.00;100984.75;5026479;28;20112;-78
2023/10/18 04:26:18;;;;;;;11.10;9.90;;;;;;;5.01;100.00;100981.28;5024459;28;20192;-77
2023/10/18 04:28:48;;;;;;;13.38;9.60;;;;;;;4.98;100.00;100962.13;5014842;28;20042;-75
2023/10/18 04:31:15;;;;;;;11.88;9.38;;;;;;;5.00;100.00;100963.88;5018920;28;20034;-78
2023/10/18 04:33:45;;;;;;;12.68;9.88;;;;;;;4.97;100.00;100959.53;5023806;28;20390;-77
2023/10/18 04:36:14;;;;;;;14.77;10.70;;;;;;;4.93;100.00;100956.06;5023840;28;20076;-77
2023/10/18 04:38:47;;;;;;;11.88;9.88;;;;;;;4.91;100.00;100957.81;5000578;28;20390;-77
2023/10/18 04:43:53;;;;;;;13.35;10.20;;;;;;;4.90;100.00;100950.84;5032403;28;20859;-77
2023/10/18 04:46:26;;;;;;;12.95;9.90;;;;;;;4.89;100.00;100945.63;5024509;28;20049;-76
2023/10/18 04:51:27;;;;;;;13.32;10.18;;;;;;;4.91;100.00;100929.06;5022515;28;20049;-76
2023/10/18 04:54:59;;;;;;;11.40;9.55;;;;;;;4.92;100.00;100922.97;5022697;28;20041;-78
2023/10/18 04:56:56;;;;;;;11.40;9.38;;;;;;;5.00;100.00;100922.91;5016832;28;20108;-73
2023/10/18 04:59:34;;;;;;;11.68;9.80;;;;;;;5.11;100.00;100913.25;5023238;28;20662;-72
2023/10/18 05:02:05;;;;;;;13.05;8.70;;;;;;;5.26;100.00;100919.28;5019548;28;20106;-72
2023/10/18 05:04:32;;;;;;;12.68;9.32;;;;;;;5.32;100.00;100919.22;5032353;28;20034;-72
2023/10/18 05:07:40;;;;;;;15.57;9.35;;;;;;;5.35;100.00;100908.75;5025348;28;20053;-72
2023/10/18 05:09:56;;;;;;;14.02;10.10;;;;;;;5.43;100.00;100899.09;5023329;28;20040;-71
2023/10/18 05:17:30;;;;;;;11.80;8.88;;;;;;;5.49;100.00;100900.78;5022969;28;20646;-72
2023/10/18 05:19:57;;;;;;;10.88;8.93;;;;;;;5.49;99.90;100907.78;5017967;28;20121;-73
2023/10/18 05:22:25;;;;;;;12.00;9.13;;;;;;;5.50;99.75;100901.66;5024563;28;20489;-72
2023/10/18 05:27:59;;;;;;;12.40;9.18;;;;;;;5.70;100.00;100884.03;5018126;28;20038;-72
2023/10/18 05:31:03;;;;;;;;;;;;;;;5.87;100.00;100889.09;5020943;28;20033;-72
2023/10/18 05:33:29;;;;;;;10.25;8.30;;;;;;;5.99;100.00;100884.63;5019914;28;19932;-72
2023/10/18 05:36:54;;;;;;;9.88;8.13;;;;;;;5.99;97.59;100890.78;5036141;28;20045;-77
2023/10/18 05:39:17;;;;;;;10.52;7.90;;;;;;;5.75;95.96;100886.59;5024290;28;20467;-77
2023/10/18 05:41:51;;;;;;;12.40;8.20;;;;;;;5.54;95.60;100892.91;5021755;28;20048;-79
2023/10/18 05:44:20;;;;;;;11.18;8.63;;;;;;;5.39;96.11;100889.53;5020199;28;20120;-78
2023/10/18 05:46:50;;;;;;;13.55;9.02;;;;;;;5.27;96.01;100882.66;5019512;28;20084;-76
2023/10/18 05:49:25;;;;;;;13.75;8.88;;;;;;;5.18;96.66;100879.25;5018393;28;20045;-77
2023/10/18 05:54:39;;;;;;;11.35;9.65;;;;;;;5.05;97.36;100883.69;5037025;28;20782;-76
2023/10/18 05:57:08;;;;;;;11.38;9.15;;;;;;;5.02;97.45;100887.19;5033378;28;20045;-75
2023/10/18 05:59:35;;;;;;;12.57;9.80;;;;;;;4.97;97.56;100883.75;5046494;28;20047;-79
2023/10/18 06:02:10;;;;;;;13.10;10.40;;;;;;;4.95;97.76;100882.91;5032301;28;20053;-77
2023/10/18 06:04:37;;;;;;;10.93;9.02;;;;;;;4.95;97.69;100880.28;5045992;28;20509;-77
2023/10/18 06:07:09;;;;;;;14.30;10.10;;;;;;;4.93;97.76;100882.03;5024355;28;20049;-76
2023/10/18 06:09:45;;;;;;;15.68;11.38;;;;;;;4.93;97.75;100879.41;5025591;28;20092;-77
2023/10/18 06:12:15;;;;;;;11.52;9.25;;;;;;;4.93;97.68;100872.47;5017491;28;20456;-76
2023/10/18 06:14:45;;;;;;;14.00;10.32;;;;;;;4.93;98.06;100874.19;5022972;28;20063;-76
2023/10/18 06:17:13;;;;;;;12.65;9.48;;;;;;;4.94;97.72;100868.94;5024356;28;20132;-76
2023/10/18 06:19:45;;;;;;;13.13;9.93;;;;;;;4.92;98.05;100870.72;5024634;28;20128;-78
2023/10/18 06:22:15;;;;;;;13.48;9.48;;;;;;;4.96;97.91;100863.72;5025009;28;20064;-76
2023/10/18 06:24:48;;;;;;;12.68;9.82;;;;;;;4.98;97.98;100849.78;5024325;28;20101;-76
2023/10/18 06:27:16;;;;;;;13.30;9.18;;;;;;;5.01;98.09;100856.72;5008766;28;20045;-77
2023/10/18 06:29:49;;;;;;;13.45;9.48;;;;;;;5.03;98.07;100854.97;5003163;28;20037;-75
2023/10/18 06:32:16;;;;;;;14.02;10.57;;;;;;;5.06;97.93;100846.22;5007368;28;20151;-75
2023/10/18 06:34:43;;;;;;;12.05;9.38;;;;;;;5.08;97.62;100842.75;5040323;28;20050;-75
2023/10/18 06:37:20;;;;;;;12.50;9.40;;;;;;;5.11;97.49;100847.94;5025469;28;20172;-76
2023/10/18 06:39:54;;;;;;;13.82;10.27;;;;;;;5.15;97.04;100837.47;5023555;28;20036;-76
2023/10/18 06:42:26;;;;;;;12.93;9.88;;;;;;;5.18;96.98;100832.22;5019758;28;20045;-76
2023/10/18 06:44:56;;;;;;;12.70;10.18;;;;;;;5.22;97.15;100841.75;5023248;28;20041;-76
2023/10/18 06:47:30;;;;;;;17.55;10.20;;;;;;;5.22;96.63;100832.19;4998958;28;20073;-76
2023/10/18 06:50:04;;;;;;;13.95;9.93;;;;;;;5.32;96.33;100843.41;5039097;28;20042;-76
2023/10/18 06:52:52;;;;;;;11.88;9.88;;;;;;;5.36;96.21;100834.66;5018156;28;20651;-75
2023/10/18 06:55:35;;;;;;;12.02;9.73;;;;;;;5.40;95.91;100836.38;5015987;28;20552;-75
2023/10/18 07:01:03;;;;;;;13.82;10.48;;;;;;;5.48;95.63;100822.38;5023712;28;20646;-75
2023/10/18 07:03:33;;;;;;;14.88;10.00;;;;;;;5.53;95.29;100828.41;5041202;28;20572;-76
2023/10/18 07:06:04;;;;;;;10.57;8.80;;;;;;;5.59;95.26;100810.06;5025469;28;20038;-75
2023/10/18 07:08:38;;;;;;;12.07;8.48;;;;;;;5.67;94.67;100804.72;5027307;28;20052;-75
2023/10/18 07:11:08;;;;;;;11.98;8.63;;;;;;;5.72;94.17;100803.81;5034356;28;20080;-75
2023/10/18 07:13:54;;;;;;;11.27;8.88;;;;;;;5.75;94.11;100801.16;5025950;28;20056;-76
2023/10/18 07:21:47;;;;;;;10.73;8.50;;;;;;;5.96;93.24;100791.34;5054441;28;20041;-75
2023/10/18 07:24:17;;;;;;;12.02;8.60;;;;;;;6.01;93.14;100793.94;5038570;28;20046;-75
2023/10/18 07:26:47;;;;;;;10.23;7.95;;;;;;;6.10;92.52;100790.34;5041490;28;20505;-75
2023/10/18 07:29:16;;;;;;;10.50;8.18;;;;;;;6.15;92.56;100792.00;5040498;28;20049;-76
2023/10/18 07:31:46;;;;;;;12.60;8.68;;;;;;;6.19;92.42;100780.59;5026135;28;20114;-75
2023/10/18 07:34:31;;;;;;;14.45;8.20;;;;;;;6.26;91.86;100780.53;5025373;28;20045;-76
2023/10/18 07:37:16;;;;;;;11.00;8.23;;;;;;;6.34;91.31;100779.53;5041323;28;20131;-75
2023/10/18 07:39:59;;;;;;;11.27;8.15;;;;;;;6.40;91.02;100764.63;5020321;28;20042;-75
2023/10/18 07:42:27;;;;;;;11.40;8.52;;;;;;;6.45;90.32;100754.94;5003093;28;20046;-75
2023/10/18 07:45:02;;;;;;;11.90;7.97;;;;;;;6.49;90.53;100757.50;5021880;28;20049;-75
2023/10/18 07:47:32;;;;;;;13.20;9.25;;;;;;;6.54;89.95;100752.19;5022383;28;20587;-74
2023/10/18 07:50:10;;;;;;;11.43;8.15;;;;;;;6.60;89.44;100746.88;5006537;28;20452;-75
2023/10/18 07:52:37;;;;;;;12.45;7.97;;;;;;;6.64;89.13;100753.78;5012647;28;20601;-76
2023/10/18 07:55:04;;;;;;;10.40;8.07;;;;;;;6.64;89.40;100751.16;5021191;28;20053;-74
2023/10/18 07:57:34;;;;;;;11.27;8.15;;;;;;;6.75;89.12;100760.59;5021667;28;20153;-75
2023/10/18 08:00:21;;;;;;;11.88;8.13;;;;;;;6.79;89.27;100747.44;5022058;28;20091;-76
2023/10/18 08:02:49;;;;;;;11.90;7.70;;;;;;;6.86;88.57;100740.34;5023122;28;20037;-75
2023/10/18 08:05:22;;;;;;;11.65;7.63;;;;;;;6.92;88.23;100742.00;5025360;28;20068;-75
2023/10/18 08:07:51;;;;;;;8.73;7.40;;;;;;;6.97;88.06;100748.00;5022646;28;20310;-75
2023/10/18 08:10:19;;;;;;;10.40;6.85;;;;;;;7.03;88.10;100753.16;5035892;28;20100;-75
2023/10/18 08:13:07;;;;;;;10.43;7.40;;;;;;;7.09;87.81;100745.19;5004144;28;20046;-76
2023/10/18 08:15:36;;;;;;;9.75;6.70;;;;;;;7.19;87.34;100739.78;5020021;28;20049;-75
2023/10/18 08:18:14;;;;;;;11.40;6.70;;;;;;;7.26;86.73;100737.03;5027636;28;20049;-75
2023/10/18 08:26:03;;;;;;;9.07;6.38;;;;;;;7.45;85.38;100723.56;5026012;28;20086;-75
2023/10/18 08:28:45;;;;;;;8.30;6.35;;;;;;;7.58;85.79;100717.19;5019688;28;20100;-75
2023/10/18 08:31:33;;;;;;;9.38;5.82;;;;;;;7.74;84.90;100709.88;5021149;28;20489;-75
2023/10/18 08:34:06;;;;;;;7.57;6.05;;;;;;;7.87;84.22;100712.25;5024331;28;20579;-75
2023/10/18 08:36:34;;;;;;;8.30;5.47;;;;;;;8.00;83.61;100707.59;5034933;28;20046;-74
2023/10/18 08:39:02;;;;;;;7.63;6.00;;;;;;;8.05;82.98;100705.72;5005809;28;20054;-75
2023/10/18 08:41:36;;;;;;;8.60;5.68;;;;;;;8.11;82.55;100696.84;5020654;28;20176;-75
2023/10/18 08:44:18;;;;;;;;;;;;;;;8.15;82.71;100693.25;5011377;28;20053;-74
2023/10/18 08:47:21;;;;;;;7.95;6.13;;;;;;;8.20;82.31;100688.75;5024774;28;20336;-74
2023/10/18 08:49:50;;;;;;;7.97;5.63;;;;;;;8.24;81.92;100693.06;5040686;28;20065;-75
2023/10/18 08:52:23;;;;;;;8.73;5.65;;;;;;;8.31;81.38;100693.78;5021083;28;20519;-75
2023/10/18 08:54:52;;;;;;;8.20;5.30;;;;;;;8.37;81.17;100693.63;5006082;28;20573;-74
2023/10/18 08:57:35;;;;;;;7.38;5.63;;;;;;;8.42;81.11;100696.13;5030754;28;20040;-75
2023/10/18 09:01:02;;;;;;;7.80;5.82;;;;;;;8.47;81.88;100696.91;5021813;28;20053;-74
2023/10/18 09:02:54;;;;;;;8.48;5.30;;;;;;;8.60;81.24;100687.84;5013164;28;20476;-75
2023/10/18 09:05:24;;;;;;;7.35;5.50;;;;;;;8.71;80.21;100679.72;5027393;28;20060;-75
2023/10/18 09:07:53;;;;;;;6.47;5.75;;;;;;;8.80;79.46;100676.00;5010361;28;20514;-75
2023/10/18 09:10:43;;;;;;;10.50;5.45;;;;;;;8.92;80.23;100674.81;5007607;28;20042;-74
2023/10/18 09:18:31;;;;;;;8.82;5.07;;;;;;;9.43;77.44;100660.25;5008393;28;20456;-75
2023/10/18 09:23:43;;;;;;;7.97;5.40;;;;;;;9.68;77.21;100663.03;5021906;28;20541;-75
2023/10/18 09:26:11;;;;;;;7.10;5.03;;;;;;;9.80;76.83;100659.22;5004791;28;20062;-75
2023/10/18 09:28:42;;;;;;;7.03;4.70;;;;;;;9.86;76.08;100656.38;5025873;28;20041;-75
2023/10/18 09:31:21;;;;;;;6.93;5.22;;;;;;;9.92;75.87;100664.09;5028673;28;20041;-75
2023/10/18 09:33:56;;;;;;;9.05;5.38;;;;;;;9.97;76.79;100663.09;5018218;28;20049;-75
2023/10/18 09:36:24;;;;;;;5.85;4.82;;;;;;;10.07;75.52;100651.38;5021000;28;20172;-74
2023/10/18 09:38:54;;;;;;;5.70;5.10;;;;;;;10.13;75.57;100652.94;5019102;28;20656;-75
2023/10/18 09:41:22;;;;;;;5.95;4.65;;;;;;;10.20;74.88;100647.44;5026021;28;20103;-75
2023/10/18 09:43:49;;;;;;;6.95;4.80;;;;;;;10.22;74.80;100643.00;5035059;28;20069;-75
2023/10/18 09:46:16;;;;;;;7.80;5.15;;;;;;;10.31;73.54;100626.00;5006295;28;20049;-75
2023/10/18 09:48:46;;;;;;;6.45;4.78;;;;;;;10.36;73.00;100636.41;5031301;28;20133;-75
2023/10/18 09:51:20;;;;;;;7.63;5.45;;;;;;;10.36;73.06;100625.84;5005943;28;20042;-75
2023/10/18 09:53:51;;;;;;;6.03;5.07;;;;;;;10.40;72.72;100622.25;5021270;28;20619;-75
2023/10/18 09:56:33;;;;;;;7.95;4.88;;;;;;;10.45;72.59;100617.66;5005557;28;20100;-74
2023/10/18 09:59:11;;;;;;;6.60;4.90;;;;;;;10.48;72.18;100614.94;5025463;28;20116;-75
2023/10/18 10:04:18;;;;;;;7.82;4.95;;;;;;;10.69;71.70;100602.78;5022235;28;20417;-75
2023/10/18 10:06:47;;;;;;;5.53;4.68;;;;;;;10.73;72.37;100595.66;5004406;28;20046;-75
2023/10/18 10:09:15;;;;;;;9.23;5.15;;;;;;;10.81;70.61;100587.47;5028315;28;20526;-75
2023/10/18 10:11:45;;;;;;;7.97;5.60;;;;;;;10.80;70.88;100588.38;5005484;28;20491;-75
2023/10/18 10:14:18;;;;;;;8.68;5.18;;;;;;;10.84;70.91;100585.56;5004728;28;20569;-75
2023/10/18 10:16:56;;;;;;;5.63;4.93;;;;;;;11.01;71.27;100582.34;5007718;28;20038;-74
2023/10/18 10:19:29;;;;;;;9.15;5.38;;;;;;;11.11;70.55;100577.59;5014822;28;20572;-74
2023/10/18 10:22:06;;;;;;;8.40;5.78;;;;;;;11.24;70.49;100563.97;5007264;28;20045;-76
2023/10/18 10:24:42;;;;;;;10.15;5.13;;;;;;;11.40;69.69;100564.22;5005444;28;20045;-75
2023/10/18 10:32:58;;;;;;;7.65;5.07;;;;;;;11.72;68.07;100543.63;5026766;28;20124;-74
2023/10/18 10:35:32;;;;;;;7.47;4.95;;;;;;;11.74;66.74;100537.38;5022104;28;20049;-76
2023/10/18 10:38:13;;;;;;;7.43;5.30;;;;;;;11.77;66.76;100520.53;5023390;28;20152;-74
2023/10/18 10:40:48;;;;;;;8.30;5.00;;;;;;;11.78;67.17;100506.44;5015142;28;20042;-75
2023/10/18 10:43:19;;;;;;;10.23;4.95;;;;;;;11.85;66.86;100512.31;5013403;28;20060;-77
2023/10/18 10:48:18;;;;;;;8.88;5.15;;;;;;;11.88;66.76;100512.19;5034638;28;20100;-77
2023/10/18 10:51:23;;;;;;;7.75;4.88;;;;;;;11.94;67.13;100510.16;5005737;28;20048;-77
2023/10/18 10:53:58;;;;;;;;;;;;;;;12.00;66.77;100495.84;5022946;28;20103;-78
2023/10/18 10:56:31;;;;;;;;;;;;;;;12.07;65.88;100485.91;5025192;28;19928;-76
2023/10/18 11:01:57;;;;;;;6.13;4.80;;;;;;;12.26;65.45;100472.72;5019727;28;20057;-78
2023/10/18 11:04:27;;;;;;;8.27;5.10;;;;;;;12.24;65.16;100469.31;5023541;28;20052;-74
2023/10/18 11:07:08;;;;;;;8.15;5.35;;;;;;;12.27;64.81;100461.25;5021888;28;20085;-74
2023/10/18 11:09:38;;;;;;;9.25;5.10;;;;;;;12.29;65.86;100450.63;5019702;28;20054;-74
2023/10/18 11:12:12;;;;;;;8.40;4.95;;;;;;;12.38;65.52;100448.41;5039474;28;20053;-77
2023/10/18 11:14:42;;;;;;;8.85;5.15;;;;;;;12.46;65.19;100440.16;5035791;28;20142;-77
2023/10/18 11:19:43;;;;;;;6.63;4.97;;;;;;;12.63;65.36;100433.25;5022252;28;20050;-74
2023/10/18 11:22:14;;;;;;;6.95;5.10;;;;;;;12.71;65.43;100421.41;5018215;28;20077;-75
2023/10/18 11:24:42;;;;;;;7.38;5.13;;;;;;;12.79;65.47;100422.81;5003285;28;20045;-75
2023/10/18 11:27:09;;;;;;;7.35;5.18;;;;;;;12.91;65.53;100418.78;5015231;28;20693;-74
2023/10/18 11:29:41;;;;;;;6.97;4.97;;;;;;;13.05;64.33;100411.91;5034749;28;20410;-75
2023/10/18 11:32:17;;;;;;;7.38;5.00;;;;;;;13.13;64.12;100410.66;5020665;28;20053;-75
2023/10/18 11:34:45;;;;;;;7.53;5.00;;;;;;;13.28;63.64;100409.06;5023534;28;20454;-75
2023/10/18 11:40:05;;;;;;;9.20;5.47;;;;;;;13.40;64.06;100402.34;5024345;28;20509;-76
2023/10/18 11:43:11;;;;;;;8.02;4.97;;;;;;;13.48;63.73;100386.94;5024350;28;20041;-75
2023/10/18 11:45:40;;;;;;;12.15;5.75;;;;;;;13.55;63.25;100385.72;4966073;28;20059;-75
2023/10/18 11:48:14;;;;;;;8.25;5.40;;;;;;;13.59;62.92;100384.59;4979752;28;20093;-76
2023/10/18 11:50:50;;;;;;;7.40;4.60;;;;;;;13.63;62.62;100374.72;4992240;28;20107;-74
2023/10/18 11:53:24;;;;;;;21.63;6.35;;;;;;;13.66;63.61;100367.47;5022418;28;20053;-76
2023/10/18 11:56:02;;;;;;;8.48;4.93;;;;;;;13.78;62.90;100362.50;5024051;28;20061;-74
2023/10/18 11:58:35;;;;;;;10.10;5.03;;;;;;;13.79;61.93;100351.81;5022462;28;20537;-75
2023/10/18 12:01:18;;;;;;;7.82;5.13;;;;;;;13.78;62.22;100349.25;5032772;28;20050;-75
2023/10/18 12:03:48;;;;;;;6.60;4.90;;;;;;;13.78;61.52;100346.59;5022671;28;20117;-75
2023/10/18 12:06:20;;;;;;;7.75;4.70;;;;;;;13.80;62.38;100340.28;5018105;28;20123;-75
2023/10/18 12:09:07;;;;;;;7.15;4.72;;;;;;;13.87;61.54;100345.25;5023990;28;20460;-76
2023/10/18 12:11:35;;;;;;;7.90;5.20;;;;;;;13.91;60.97;100326.47;5026015;28;20045;-76
2023/10/18 12:14:04;;;;;;;7.35;4.50;;;;;;;13.95;61.26;100314.78;5022041;28;20045;-74
2023/10/18 12:16:32;;;;;;;8.80;4.47;;;;;;;14.01;60.93;100308.31;5016528;28;20129;-76
2023/10/18 12:19:00;;;;;;;6.85;4.47;;;;;;;14.06;61.17;100305.41;5043581;28;20092;-76
2023/10/18 12:21:30;;;;;;;7.28;4.60;;;;;;;14.06;61.73;100294.81;5020606;28;20049;-75
2023/10/18 12:23:57;;;;;;;7.35;4.70;;;;;;;14.17;60.06;100297.72;5020340;28;20065;-75
2023/10/18 12:26:25;;;;;;;7.63;4.50;;;;;;;14.20;59.40;100296.69;5024517;28;20164;-75
2023/10/18 12:28:55;;;;;;;10.25;4.65;;;;;;;14.19;59.65;100290.56;5020345;28;20125;-75
2023/10/18 12:31:28;;;;;;;7.18;4.28;;;;;;;14.24;59.25;100291.16;5040562;28;20719;-75
2023/10/18 12:33:59;;;;;;;7.03;4.57;;;;;;;14.27;59.83;100280.38;5009806;28;20046;-76
2023/10/18 12:36:33;;;;;;;8.10;4.80;;;;;;;14.29;60.44;100277.63;5019046;28;20077;-74
2023/10/18 12:39:12;;;;;;;7.18;4.57;;;;;;;14.34;60.16;100259.69;5023192;28;20080;-75
2023/10/18 12:41:42;;;;;;;9.18;5.00;;;;;;;14.35;59.63;100256.06;5034997;28;20107;-74
2023/10/18 12:44:17;;;;;;;8.57;4.50;;;;;;;14.32;60.85;100255.41;5023695;28;20073;-74
2023/10/18 12:46:50;;;;;;;5.70;4.30;;;;;;;14.37;60.33;100248.91;5015132;28;20057;-74